createdAt,value
2023-01-10T00:01:15.911Z,7.90
2023-01-10T00:06:19.256Z,7.90
2023-01-10T00:11:43.142Z,7.80
2023-01-10T00:16:47.253Z,7.70
2023-01-10T00:21:51.922Z,7.70
2023-01-10T00:26:55.779Z,7.60
2023-01-10T00:31:59.741Z,7.60
2023-01-10T00:37:04.078Z,7.60
2023-01-10T00:42:26.130Z,7.40
2023-01-10T00:47:29.743Z,7.30
2023-01-10T00:52:34.441Z,7.10
2023-01-10T00:57:39.311Z,6.90
2023-01-10T01:02:44.008Z,6.80
2023-01-10T01:07:51.164Z,6.70
2023-01-10T01:13:01.215Z,6.60
2023-01-10T01:18:07.269Z,6.40
2023-01-10T01:23:11.363Z,6.30
2023-01-10T01:28:15.474Z,6.30
2023-01-10T01:33:20.362Z,6.30
2023-01-10T01:38:24.564Z,6.10
2023-01-10T01:43:32.306Z,6.00
2023-01-10T01:48:44.085Z,5.90
2023-01-10T01:53:56.964Z,5.80
2023-01-10T01:59:06.672Z,5.80
2023-01-10T02:04:23.598Z,5.80
2023-01-10T02:09:37.130Z,5.80
2023-01-10T02:14:43.848Z,5.80
2023-01-10T02:19:59.683Z,5.80
2023-01-10T02:25:42.604Z,5.70
2023-01-10T02:31:24.466Z,5.70
2023-01-10T02:36:49.991Z,5.60
2023-01-10T02:42:03.292Z,5.30
2023-01-10T02:47:09.673Z,5.30
2023-01-10T02:52:20.734Z,5.30
2023-01-10T02:58:11.862Z,5.30
2023-01-10T03:03:34.067Z,5.10
2023-01-10T03:08:49.512Z,4.90
2023-01-10T03:14:03.085Z,5.00
2023-01-10T03:19:18.142Z,5.30
2023-01-10T03:24:29.840Z,5.40
2023-01-10T03:29:46.799Z,5.50
2023-01-10T03:34:51.190Z,5.50
2023-01-10T03:40:07.572Z,5.50
2023-01-10T03:45:17.133Z,5.40
2023-01-10T03:50:24.635Z,5.50
2023-01-10T03:55:30.276Z,5.60
2023-01-10T04:00:34.820Z,5.60
2023-01-10T04:05:39.049Z,5.40
2023-01-10T04:10:43.808Z,5.30
2023-01-10T04:15:48.280Z,5.30
2023-01-10T04:20:53.243Z,5.10
2023-01-10T04:25:58.710Z,5.00
2023-01-10T04:31:03.215Z,5.00
2023-01-10T04:36:08.055Z,5.00
2023-01-10T04:41:12.293Z,5.10
2023-01-10T04:46:17.566Z,5.20
2023-01-10T04:51:22.306Z,5.10
2023-01-10T04:56:26.822Z,4.90
2023-01-10T05:01:30.277Z,4.70
2023-01-10T05:06:34.563Z,4.60
2023-01-10T05:11:38.742Z,4.50
2023-01-10T05:16:42.979Z,4.40
2023-01-10T05:21:47.171Z,4.50
2023-01-10T05:26:51.033Z,4.40
2023-01-10T05:31:56.179Z,4.30
2023-01-10T05:37:00.404Z,4.40
2023-01-10T05:42:09.027Z,4.60
2023-01-10T05:47:13.602Z,4.60
2023-01-10T05:52:17.231Z,4.40
2023-01-10T05:57:22.687Z,4.30
2023-01-10T06:02:27.219Z,4.30
2023-01-10T06:07:32.484Z,4.40
2023-01-10T06:12:39.614Z,4.30
2023-01-10T06:17:44.796Z,3.90
2023-01-10T06:22:48.547Z,4.00
2023-01-10T06:27:53.191Z,3.80
2023-01-10T06:33:06.671Z,3.60
2023-01-10T06:38:11.149Z,3.70
2023-01-10T06:43:15.375Z,3.80
2023-01-10T06:48:23.040Z,3.40
2023-01-10T06:53:28.132Z,3.30
2023-01-10T06:58:33.223Z,3.00
2023-01-10T07:03:38.166Z,2.90
2023-01-10T07:08:45.049Z,2.90
2023-01-10T07:13:50.040Z,2.90
2023-01-10T07:18:53.877Z,2.90
2023-01-10T07:23:58.696Z,2.70
2023-01-10T07:29:04.378Z,2.80
2023-01-10T07:34:08.432Z,3.00
2023-01-10T07:39:12.641Z,2.90
2023-01-10T07:44:17.612Z,3.00
2023-01-10T07:49:22.367Z,3.30
2023-01-10T07:54:26.819Z,3.60
2023-01-10T07:59:31.115Z,3.80
2023-01-10T08:04:35.457Z,3.80
2023-01-10T08:09:40.893Z,4.10
2023-01-10T08:14:45.671Z,4.30
2023-01-10T08:19:50.016Z,4.50
2023-01-10T08:24:54.993Z,4.60
2023-01-10T08:29:59.294Z,4.90
2023-01-10T08:35:04.128Z,5.10
2023-01-10T08:40:10.608Z,5.30
2023-01-10T08:45:16.933Z,5.50
2023-01-10T08:50:21.160Z,5.80
2023-01-10T08:55:26.850Z,5.90
2023-01-10T09:00:31.998Z,6.10
2023-01-10T09:05:36.302Z,6.20
2023-01-10T09:10:40.293Z,6.30
2023-01-10T09:15:44.757Z,6.60
2023-01-10T09:20:51.097Z,6.80
2023-01-10T09:25:56.784Z,6.90
2023-01-10T09:31:01.571Z,7.00
2023-01-10T09:36:05.645Z,7.20
2023-01-10T09:41:28.470Z,7.30
2023-01-10T09:47:14.227Z,7.50
2023-01-10T09:52:42.084Z,7.70
2023-01-10T09:57:47.589Z,7.80
2023-01-10T10:02:54.176Z,7.90
2023-01-10T10:08:19.460Z,8.10
2023-01-10T10:13:50.941Z,8.30
2023-01-10T10:19:09.336Z,8.40
2023-01-10T10:24:25.066Z,8.60
2023-01-10T10:29:28.932Z,8.80
2023-01-10T10:34:48.955Z,8.90
2023-01-10T10:40:21.278Z,9.20
2023-01-10T10:45:41.830Z,9.40
2023-01-10T10:51:35.446Z,9.70
2023-01-10T10:56:39.113Z,9.90
2023-01-10T11:01:47.640Z,10.30
2023-01-10T11:06:53.305Z,10.70
2023-01-10T11:12:00.420Z,12.50
2023-01-10T11:17:23.202Z,14.80
2023-01-10T11:22:30.649Z,16.30
2023-01-10T11:27:46.475Z,17.40
2023-01-10T11:32:54.806Z,18.40
2023-01-10T11:38:19.822Z,18.90
2023-01-10T11:43:41.483Z,18.90
2023-01-10T11:54:20.713Z,20.40
2023-01-10T11:59:27.187Z,20.80
2023-01-10T12:04:42.265Z,21.50
2023-01-10T12:09:55.085Z,22.10
2023-01-10T12:15:03.095Z,22.50
